Time;durP1;ratioP1;P1;durP2;ratioP2;P2;SDS_P1;SDS_P2;PMS_P1;PMS_P2;Temp;Humidity;BMP_temperature;BMP_pressure;BME280_temperature;BME280_humidity;BME280_pressure;Samples;Min_cycle;Max_cycle;Signal;HPM_P1;HPM_P2
2022/07/04 00:00:13;;;;;;;1.70;1.60;;;18.20;99.90;;;;;;4800645;29;20082;-85
2022/07/04 00:03:15;;;;;;;1.50;1.40;;;18.30;99.90;;;;;;4833405;29;20116;-85
2022/07/04 00:06:31;;;;;;;1.85;1.75;;;18.30;99.90;;;;;;4847757;29;20049;-85
2022/07/04 00:27:01;;;;;;;2.17;1.98;;;18.50;99.90;;;;;;4828382;29;20053;-82
2022/07/04 00:30:04;;;;;;;1.90;1.80;;;18.90;99.90;;;;;;4805683;29;20061;-82
2022/07/04 00:33:07;;;;;;;2.38;1.65;;;19.30;99.90;;;;;;4797217;29;20062;-83
2022/07/04 00:35:52;;;;;;;2.70;1.80;;;19.90;99.90;;;;;;4816583;29;20056;-82
2022/07/04 00:38:26;;;;;;;3.45;2.05;;;20.20;99.90;;;;;;4844289;29;20060;-82
2022/07/04 00:46:10;;;;;;;1.60;1.48;;;20.40;99.90;;;;;;4843981;29;20056;-82
2022/07/04 00:48:40;;;;;;;2.08;1.83;;;20.30;99.90;;;;;;4845284;29;20052;-83
2022/07/04 00:51:49;;;;;;;1.98;1.88;;;20.30;99.90;;;;;;4860053;29;20151;-83
2022/07/04 00:55:27;;;;;;;5.85;3.25;;;20.20;99.90;;;;;;4838283;29;20453;-83
2022/07/04 00:59:08;;;;;;;1.67;1.58;;;20.20;99.90;;;;;;4874212;29;20057;-83
2022/07/04 01:02:20;;;;;;;2.45;2.22;;;20.30;99.90;;;;;;4828466;29;20049;-85
2022/07/04 01:05:22;;;;;;;6.03;2.58;;;20.50;99.90;;;;;;4831935;29;20045;-83
2022/07/04 01:09:34;;;;;;;4.25;2.35;;;20.50;99.90;;;;;;4796856;29;20059;-84
2022/07/04 01:12:08;;;;;;;1.77;1.65;;;20.50;99.90;;;;;;4770281;29;20640;-84
2022/07/04 01:15:32;;;;;;;4.78;2.47;;;20.30;99.90;;;;;;4756477;29;20068;-83
2022/07/04 01:18:47;;;;;;;2.83;1.70;;;20.40;99.90;;;;;;4749117;29;20061;-83
2022/07/04 01:26:07;;;;;;;2.83;2.40;;;20.40;99.90;;;;;;4812069;29;20053;-85
2022/07/04 01:38:42;;;;;;;3.80;3.05;;;19.80;99.90;;;;;;4854012;29;20042;-83
2022/07/04 01:42:20;;;;;;;2.60;2.38;;;19.40;99.90;;;;;;4839045;29;20050;-84
2022/07/04 01:51:45;;;;;;;2.08;1.98;;;18.70;99.90;;;;;;4800852;29;20066;-81
2022/07/04 02:04:45;;;;;;;4.45;2.33;;;18.80;99.90;;;;;;4820923;29;20065;-88
2022/07/04 02:16:26;;;;;;;2.40;2.15;;;19.20;99.90;;;;;;4792210;29;20433;-84
2022/07/04 04:45:14;;;;;;;2.78;2.60;;;17.50;99.90;;;;;;5152959;23;20057;-84
2022/07/04 04:47:50;;;;;;;3.13;2.83;;;17.50;99.90;;;;;;4846100;29;20050;-85
2022/07/04 04:50:31;;;;;;;4.05;3.53;;;17.60;99.90;;;;;;4865416;23;20061;-84
2022/07/04 04:53:02;;;;;;;2.63;2.42;;;17.60;99.90;;;;;;4912856;24;20057;-84
2022/07/04 05:00:51;;;;;;;2.30;2.15;;;17.70;99.90;;;;;;4827602;29;20166;-84
2022/07/04 05:59:04;;;;;;;3.42;2.33;;;18.40;99.90;;;;;;4768632;30;20078;-85
2022/07/04 06:15:54;;;;;;;2.75;2.55;;;18.70;99.90;;;;;;4804025;29;20058;-86
2022/07/04 06:24:24;;;;;;;2.25;1.98;;;18.70;99.90;;;;;;5480365;23;20049;-86
2022/07/04 06:32:19;;;;;;;2.60;2.40;;;18.60;99.90;;;;;;4863581;29;20057;-86
2022/07/04 06:44:53;;;;;;;1.92;1.83;;;18.70;99.90;;;;;;4855546;29;20045;-82
2022/07/04 06:47:21;;;;;;;1.98;1.88;;;18.70;99.90;;;;;;4843005;29;20056;-81
2022/07/04 06:50:32;;;;;;;2.03;1.67;;;18.80;99.90;;;;;;4858564;29;20057;-83
2022/07/04 06:53:15;;;;;;;3.55;2.17;;;18.80;99.90;;;;;;4840462;29;20053;-82
2022/07/04 06:55:48;;;;;;;5.38;2.13;;;18.90;99.90;;;;;;4838803;29;20525;-83
2022/07/04 06:58:19;;;;;;;2.92;2.30;;;18.90;99.90;;;;;;4844386;29;20046;-84
2022/07/04 07:01:24;;;;;;;2.47;1.98;;;18.90;99.90;;;;;;4827470;29;20049;-85
2022/07/04 07:03:56;;;;;;;2.00;1.90;;;19.10;99.90;;;;;;4825063;29;20400;-84
2022/07/04 07:06:24;;;;;;;2.38;2.17;;;19.10;99.90;;;;;;4816126;29;20720;-82
2022/07/04 07:08:52;;;;;;;1.95;1.85;;;19.20;99.90;;;;;;4827932;29;20080;-84
2022/07/04 07:11:45;;;;;;;1.70;1.60;;;19.30;99.90;;;;;;4827480;29;20605;-85
2022/07/04 07:14:46;;;;;;;4.53;2.47;;;19.40;99.90;;;;;;4830427;29;20053;-84
2022/07/04 07:17:43;;;;;;;1.65;1.55;;;19.50;99.90;;;;;;4840067;29;20077;-87
2022/07/04 07:20:58;;;;;;;2.90;1.85;;;19.60;99.90;;;;;;4843946;29;20044;-88
2022/07/04 07:23:45;;;;;;;1.70;1.42;;;19.80;99.90;;;;;;4842774;29;20065;-85
2022/07/04 07:26:42;;;;;;;2.25;2.05;;;19.80;99.90;;;;;;4817551;29;20046;-87
2022/07/04 07:30:10;;;;;;;1.88;1.77;;;19.80;99.90;;;;;;4844315;29;20058;-90
2022/07/04 07:33:01;;;;;;;2.95;2.00;;;19.80;99.90;;;;;;4806876;29;20059;-86
2022/07/04 07:36:56;;;;;;;12.15;2.10;;;19.80;99.90;;;;;;4794041;29;20401;-85
2022/07/04 07:39:24;;;;;;;3.28;2.25;;;19.80;99.90;;;;;;4801694;29;20054;-84
2022/07/04 07:41:54;;;;;;;3.35;1.70;;;19.80;99.90;;;;;;4823067;29;20413;-83
2022/07/04 07:44:22;;;;;;;2.15;1.63;;;19.80;99.90;;;;;;4838915;29;20542;-85
2022/07/04 07:46:56;;;;;;;6.57;2.10;;;19.80;99.90;;;;;;4822966;29;20072;-86
2022/07/04 07:49:47;;;;;;;1.50;1.40;;;19.80;99.90;;;;;;4799471;29;20054;-83
2022/07/04 07:52:28;;;;;;;3.00;1.95;;;19.80;99.90;;;;;;4739518;30;20051;-84
2022/07/04 07:56:00;;;;;;;4.03;2.92;;;19.80;99.90;;;;;;4777442;29;20103;-86
2022/07/04 07:59:23;;;;;;;2.88;2.65;;;19.80;99.90;;;;;;4757109;29;20047;-83
2022/07/04 08:05:22;;;;;;;2.13;1.95;;;19.80;99.90;;;;;;4801131;29;20525;-82
2022/07/04 08:08:25;;;;;;;5.68;1.88;;;19.80;99.90;;;;;;4786649;29;20062;-82
2022/07/04 08:11:06;;;;;;;1.73;1.48;;;19.80;99.90;;;;;;4797753;29;20039;-82
2022/07/04 08:13:58;;;;;;;1.38;1.25;;;19.80;99.90;;;;;;4786071;29;20062;-83
2022/07/04 08:17:02;;;;;;;1.92;1.83;;;19.80;99.90;;;;;;4741526;30;20047;-83
2022/07/04 08:19:37;;;;;;;3.05;2.10;;;19.80;99.90;;;;;;4765342;29;20063;-83
2022/07/04 08:22:26;;;;;;;7.28;2.03;;;19.80;99.90;;;;;;4915909;24;20449;-83
2022/07/04 08:25:46;;;;;;;2.10;1.67;;;19.70;99.90;;;;;;4873677;23;20058;31
2022/07/04 08:48:16;;;;;;;2.15;1.25;;;19.90;99.90;;;;;;5178791;23;20053;-86
2022/07/04 08:52:03;;;;;;;;;;;;;;;;;;;;;
2022/07/04 08:59:48;;;;;;;4.03;1.90;;;19.90;99.90;;;;;;4989711;23;19924;-85
2022/07/04 09:12:25;;;;;;;1.73;1.63;;;20.30;99.90;;;;;;5268117;23;20057;-88
2022/07/04 09:19:00;;;;;;;3.03;2.30;;;20.40;99.90;;;;;;5073601;23;20376;-90
2022/07/04 09:22:06;;;;;;;1.55;1.52;;;20.40;99.90;;;;;;4808292;29;20057;-87
2022/07/04 09:29:57;;;;;;;2.45;1.50;;;20.70;99.90;;;;;;4834992;29;20498;-87
2022/07/04 09:46:02;;;;;;;1.92;1.83;;;20.90;99.90;;;;;;5767039;22;11624797;-89
2022/07/04 09:53:29;;;;;;;1.55;1.25;;;22.20;99.90;;;;;;6096606;23;20030;-88
2022/07/04 09:56:57;;;;;;;2.40;1.30;;;22.40;99.90;;;;;;6137648;22;20031;-90
2022/07/04 10:04:08;;;;;;;5.75;2.00;;;22.70;99.90;;;;;;6126827;23;20025;-91
2022/07/04 10:07:28;;;;;;;3.72;1.35;;;22.80;99.90;;;;;;6146721;23;20021;-88
2022/07/04 10:10:44;;;;;;;1.63;1.50;;;23.00;99.90;;;;;;6133133;23;20043;-91
2022/07/04 10:14:15;;;;;;;3.13;1.38;;;22.80;99.90;;;;;;6164545;23;20097;-89
2022/07/04 10:17:52;;;;;;;1.42;1.25;;;22.60;99.90;;;;;;6037194;23;20163;-90
2022/07/04 10:35:56;;;;;;;1.10;1.10;;;22.50;99.90;;;;;;5970244;23;20028;-89
2022/07/04 10:40:24;;;;;;;1.35;1.13;;;22.80;99.90;;;;;;5955731;23;20039;-90
2022/07/04 10:47:37;;;;;;;1.83;1.25;;;23.30;99.90;;;;;;6001307;23;20032;-89
2022/07/04 10:55:28;;;;;;;1.10;1.10;;;23.20;99.90;;;;;;5966418;23;20024;-89
2022/07/04 10:58:50;;;;;;;1.50;1.40;;;23.10;99.90;;;;;;5987031;23;20042;-89
2022/07/04 11:01:35;;;;;;;1.50;1.40;;;23.10;99.90;;;;;;5979807;23;20020;-90
2022/07/04 11:09:14;;;;;;;1.23;1.10;;;23.20;99.90;;;;;;6234457;22;20024;-87
2022/07/04 11:12:02;;;;;;;2.25;1.48;;;23.30;99.90;;;;;;6170605;23;20694;-85
2022/07/04 11:14:46;;;;;;;1.42;1.33;;;23.30;99.90;;;;;;6217853;23;20444;-88
2022/07/04 11:17:19;;;;;;;1.88;1.77;;;23.40;99.90;;;;;;6204725;23;20023;-86
2022/07/04 11:20:51;;;;;;;1.38;1.27;;;23.40;99.90;;;;;;6179607;23;20194;-88
2022/07/04 11:23:34;;;;;;;1.45;1.30;;;23.50;99.90;;;;;;6160788;23;20029;-88
2022/07/04 11:26:22;;;;;;;1.73;1.63;;;23.40;99.90;;;;;;6173800;23;20538;-92
2022/07/04 11:29:27;;;;;;;1.40;1.30;;;23.40;99.90;;;;;;6195771;23;20023;-87
2022/07/04 11:31:58;;;;;;;2.92;1.63;;;23.50;99.90;;;;;;6246436;23;20024;-92
2022/07/04 11:34:40;;;;;;;0.90;0.90;;;23.60;99.90;;;;;;6200065;23;20024;-81
2022/07/04 11:37:19;;;;;;;1.75;1.65;;;23.70;99.90;;;;;;6194982;23;20363;-81
2022/07/04 11:45:54;;;;;;;1.48;1.38;;;24.00;99.90;;;;;;6253589;23;20335;-82
2022/07/04 11:48:27;;;;;;;1.52;1.42;;;23.90;99.90;;;;;;6228459;23;20427;-81
2022/07/04 11:50:55;;;;;;;4.28;2.10;;;23.90;99.90;;;;;;6248941;23;20027;-81
2022/07/04 11:53:23;;;;;;;3.05;2.05;;;23.90;99.90;;;;;;6204114;23;20020;-81
2022/07/04 11:56:01;;;;;;;2.25;2.10;;;23.90;99.90;;;;;;6245063;23;20675;-82
2022/07/04 11:58:41;;;;;;;1.63;1.52;;;23.80;99.90;;;;;;6250209;23;20020;-81
2022/07/04 12:01:11;;;;;;;1.92;1.83;;;23.90;99.90;;;;;;6255810;23;20623;-81
2022/07/04 12:03:39;;;;;;;1.30;1.02;;;24.10;99.90;;;;;;6193041;23;20024;-81
2022/07/04 12:06:07;;;;;;;2.80;1.58;;;24.30;99.90;;;;;;6252526;23;20027;-82
2022/07/04 12:08:42;;;;;;;4.18;1.60;;;24.50;99.90;;;;;;6248307;23;20024;-81
2022/07/04 12:11:10;;;;;;;1.70;1.60;;;24.80;99.90;;;;;;6202611;23;20347;-83
2022/07/04 12:13:38;;;;;;;2.53;1.35;;;24.80;99.90;;;;;;6228424;23;20016;-88
2022/07/04 12:16:11;;;;;;;1.30;1.20;;;24.80;99.90;;;;;;6256177;23;20683;-86
2022/07/04 12:18:39;;;;;;;1.92;1.83;;;24.70;99.90;;;;;;6251410;23;20020;-88
2022/07/04 12:21:18;;;;;;;1.85;1.75;;;24.70;99.90;;;;;;6255490;23;20466;-88
2022/07/04 12:23:57;;;;;;;2.45;2.25;;;24.70;99.90;;;;;;6192185;23;20024;-89
2022/07/04 12:26:34;;;;;;;2.67;1.42;;;24.70;99.90;;;;;;6217150;23;20016;-90
2022/07/04 12:29:09;;;;;;;3.40;2.35;;;24.70;99.90;;;;;;6168380;23;20019;-89
2022/07/04 12:31:39;;;;;;;1.58;1.48;;;24.60;99.90;;;;;;6246525;23;20020;-88
2022/07/04 12:34:17;;;;;;;3.17;1.80;;;24.60;99.90;;;;;;6253562;23;20024;-91
2022/07/04 12:36:56;;;;;;;2.15;2.03;;;24.60;99.90;;;;;;6219204;23;20459;-92
2022/07/04 12:39:43;;;;;;;4.35;1.73;;;24.70;99.90;;;;;;6221379;23;20455;-92
2022/07/04 12:42:17;;;;;;;1.50;1.40;;;24.70;99.90;;;;;;6202866;23;20024;-90
2022/07/04 12:44:51;;;;;;;1.92;1.25;;;24.80;99.90;;;;;;6230977;23;20012;-90
2022/07/04 12:47:20;;;;;;;3.25;1.75;;;24.80;99.90;;;;;;6169593;23;20032;-92
2022/07/04 12:50:08;;;;;;;1.80;1.70;;;24.80;99.90;;;;;;6195061;23;20017;-92
2022/07/04 12:52:40;;;;;;;1.85;1.75;;;24.70;99.90;;;;;;6171006;23;20416;-89
2022/07/04 12:55:10;;;;;;;2.30;1.73;;;24.70;99.90;;;;;;6194978;23;20689;-89
2022/07/04 12:57:42;;;;;;;9.02;1.88;;;24.80;99.90;;;;;;6169291;23;20017;-91
2022/07/04 13:00:12;;;;;;;2.05;1.55;;;24.80;99.90;;;;;;6170311;23;20543;-88
2022/07/04 13:03:00;;;;;;;2.13;1.75;;;24.80;99.90;;;;;;6193449;23;20347;-92
2022/07/04 13:05:28;;;;;;;3.55;1.92;;;24.70;99.90;;;;;;6220854;23;20339;-90
2022/07/04 13:07:56;;;;;;;6.13;1.55;;;24.90;99.90;;;;;;6169314;23;20443;-90
2022/07/04 13:10:25;;;;;;;3.25;1.60;;;24.90;99.90;;;;;;6224656;23;20482;-89
2022/07/04 13:12:53;;;;;;;1.73;1.60;;;24.90;99.90;;;;;;6256205;23;20099;-90
2022/07/04 13:15:21;;;;;;;2.78;1.58;;;24.90;99.90;;;;;;6196309;23;20431;-88
2022/07/04 13:17:49;;;;;;;1.80;1.70;;;24.90;99.90;;;;;;6254422;23;20012;-89
2022/07/04 13:20:17;;;;;;;2.10;1.88;;;24.90;99.90;;;;;;6229425;23;20016;-90
2022/07/04 13:22:46;;;;;;;1.83;1.70;;;24.90;99.90;;;;;;6224601;23;20440;-90
2022/07/04 13:25:14;;;;;;;1.67;1.20;;;24.80;99.90;;;;;;6193945;23;20016;-89
2022/07/04 13:27:42;;;;;;;1.80;1.40;;;24.80;99.90;;;;;;6220741;23;20451;-92
2022/07/04 13:34:22;;;;;;;2.67;1.40;;;24.70;99.90;;;;;;6194071;23;20024;-90
2022/07/04 13:36:51;;;;;;;1.70;1.30;;;24.60;99.90;;;;;;6194101;23;20023;-91
2022/07/04 13:39:19;;;;;;;4.03;1.35;;;24.60;99.90;;;;;;6168718;23;20471;-92
2022/07/04 13:42:09;;;;;;;1.50;1.42;;;24.50;99.90;;;;;;6173600;23;20039;-91
2022/07/04 13:44:37;;;;;;;2.50;1.98;;;24.60;99.90;;;;;;6205319;23;20012;-89
2022/07/04 13:47:05;;;;;;;1.55;1.33;;;24.60;99.90;;;;;;6194644;23;20027;-89
2022/07/04 13:49:33;;;;;;;1.80;1.45;;;24.60;99.90;;;;;;6204600;23;20324;-89
2022/07/04 13:52:01;;;;;;;3.28;1.73;;;24.60;99.90;;;;;;6218220;23;20027;-89
2022/07/04 13:54:29;;;;;;;7.70;1.55;;;24.70;99.90;;;;;;6250482;23;20039;-88
2022/07/04 13:56:57;;;;;;;4.57;1.83;;;24.70;99.90;;;;;;6228363;23;20019;-87
2022/07/04 14:00:09;;;;;;;1.70;1.58;;;24.60;99.90;;;;;;6220401;23;20468;-88
2022/07/04 14:02:37;;;;;;;3.53;2.30;;;24.70;99.90;;;;;;6169208;23;20023;-91
2022/07/04 14:05:06;;;;;;;2.05;1.75;;;24.80;99.90;;;;;;6170061;23;20068;-89
2022/07/04 14:07:35;;;;;;;2.70;1.63;;;25.00;99.90;;;;;;6246790;23;20653;-89
2022/07/04 14:10:04;;;;;;;1.92;1.83;;;25.20;99.90;;;;;;6253207;23;20035;-89
2022/07/04 14:12:32;;;;;;;1.70;1.60;;;25.30;99.90;;;;;;6193929;23;20031;-89
2022/07/04 14:15:01;;;;;;;6.35;1.73;;;25.50;99.90;;;;;;6193097;23;20028;-90
2022/07/04 14:17:32;;;;;;;1.60;1.50;;;25.70;99.90;;;;;;6171103;23;20020;-92
2022/07/04 14:20:33;;;;;;;2.15;1.90;;;25.80;99.90;;;;;;6169474;23;20016;-93
2022/07/04 14:23:04;;;;;;;;;;;25.60;99.90;;;;;;6172848;23;20027;-92
2022/07/04 14:25:35;;;;;;;3.58;1.90;;;25.30;99.90;;;;;;6197509;23;19915;-90
2022/07/04 14:28:04;;;;;;;3.75;1.65;;;25.40;99.90;;;;;;6169275;23;20027;-87
2022/07/04 14:30:32;;;;;;;2.67;2.00;;;25.50;99.90;;;;;;6225146;23;20024;-89
2022/07/04 14:33:00;;;;;;;2.03;1.85;;;25.50;99.90;;;;;;6230354;23;20024;-90
2022/07/04 14:35:28;;;;;;;2.88;1.73;;;25.30;99.90;;;;;;6221017;23;20529;-90
2022/07/04 14:37:56;;;;;;;3.20;1.33;;;25.20;99.90;;;;;;6227996;23;20015;-91
2022/07/04 14:40:25;;;;;;;1.67;1.58;;;25.00;99.90;;;;;;6228959;23;20016;-90
2022/07/04 14:42:53;;;;;;;3.65;2.03;;;24.90;99.90;;;;;;6192425;23;20024;-90
2022/07/04 14:50:04;;;;;;;2.10;1.75;;;24.60;99.90;;;;;;6125464;23;20021;-86
2022/07/04 14:53:04;;;;;;;3.17;2.33;;;24.70;99.90;;;;;;6103878;23;20441;-85
2022/07/04 15:12:13;;;;;;;1.38;1.25;;;25.30;99.90;;;;;;6231444;22;19938;-87
2022/07/04 15:15:41;;;;;;;3.75;1.33;;;25.10;99.90;;;;;;6187913;23;20024;-86
2022/07/04 15:19:03;;;;;;;2.20;1.40;;;25.30;99.90;;;;;;6106877;23;20029;-84
2022/07/04 15:24:18;;;;;;;1.95;1.80;;;25.90;99.90;;;;;;6226783;23;20020;-84
2022/07/04 15:27:04;;;;;;;2.60;2.03;;;26.20;99.90;;;;;;6249506;22;20024;-86
2022/07/04 15:29:46;;;;;;;;;;;;;;;;;;;;;
2022/07/04 15:33:14;;;;;;;2.63;1.67;;;26.20;99.90;;;;;;6121730;23;20721;-85
2022/07/04 15:37:00;;;;;;;2.03;1.88;;;26.20;99.90;;;;;;6190524;23;20020;-90
2022/07/04 15:44:07;;;;;;;1.60;1.50;;;25.70;99.90;;;;;;6045100;23;20018;-86
2022/07/04 15:47:07;;;;;;;2.35;2.20;;;25.90;99.90;;;;;;6081272;23;20018;-87
2022/07/04 15:50:06;;;;;;;1.48;1.38;;;26.20;99.90;;;;;;6090451;23;20782;-87
2022/07/04 15:52:47;;;;;;;1.70;1.57;;;26.40;99.90;;;;;;6119356;23;20018;-87
2022/07/04 15:55:24;;;;;;;1.67;1.58;;;26.50;99.90;;;;;;6077632;23;20027;-86
2022/07/04 15:57:54;;;;;;;1.90;1.75;;;26.50;99.90;;;;;;6074518;23;20042;-86
2022/07/04 16:00:27;;;;;;;1.55;1.45;;;26.60;99.90;;;;;;6099444;23;20111;-86
2022/07/04 16:02:56;;;;;;;4.50;1.80;;;26.30;99.90;;;;;;6192662;23;20332;-87
2022/07/04 16:05:24;;;;;;;1.73;1.63;;;25.90;99.90;;;;;;6169457;23;20017;-87
2022/07/04 16:07:53;;;;;;;3.88;1.40;;;25.50;99.90;;;;;;6192165;23;20024;-87
2022/07/04 16:10:24;;;;;;;3.25;1.65;;;25.30;99.90;;;;;;6168671;23;20024;-86
2022/07/04 16:12:52;;;;;;;1.42;1.33;;;25.30;99.90;;;;;;6229587;23;20016;-85
2022/07/04 16:15:26;;;;;;;7.43;1.75;;;25.50;99.90;;;;;;6170585;23;20047;-87
2022/07/04 16:17:56;;;;;;;1.77;1.48;;;25.30;99.90;;;;;;6192430;22;20012;-88
2022/07/04 16:20:27;;;;;;;1.55;1.45;;;25.20;99.90;;;;;;6193338;23;20020;-87
2022/07/04 16:22:55;;;;;;;2.40;1.60;;;25.20;99.90;;;;;;6192614;23;20016;-87
2022/07/04 16:25:24;;;;;;;2.08;1.88;;;25.30;99.90;;;;;;6242551;23;20035;-85
2022/07/04 16:27:52;;;;;;;1.67;1.58;;;25.50;99.90;;;;;;6168263;23;20027;-86
2022/07/04 16:30:20;;;;;;;1.80;1.70;;;25.50;99.90;;;;;;6241216;22;20020;-86
2022/07/04 16:32:52;;;;;;;3.97;1.88;;;25.30;99.90;;;;;;6198967;22;20435;-84
2022/07/04 16:35:27;;;;;;;1.65;1.55;;;25.20;99.90;;;;;;6212036;22;20451;-85
2022/07/04 16:37:55;;;;;;;3.22;1.83;;;25.00;99.90;;;;;;6223229;22;20012;-88
2022/07/04 16:40:30;;;;;;;2.00;1.83;;;24.90;99.90;;;;;;6234555;22;20331;-86
2022/07/04 16:42:58;;;;;;;2.47;2.28;;;24.70;99.90;;;;;;6196966;22;20023;-86
2022/07/04 16:45:26;;;;;;;2.72;2.50;;;24.60;99.90;;;;;;6196234;22;20034;-85
2022/07/04 16:47:54;;;;;;;2.80;1.83;;;24.50;99.90;;;;;;6247132;22;20023;-85
2022/07/04 16:50:22;;;;;;;3.72;1.92;;;24.60;99.90;;;;;;6247632;22;20030;-87
2022/07/04 16:53:05;;;;;;;2.00;1.90;;;24.50;99.90;;;;;;6248476;22;20011;-90
2022/07/04 16:56:03;;;;;;;5.65;3.25;;;24.40;99.90;;;;;;6199330;22;20020;-88
2022/07/04 16:58:38;;;;;;;2.70;2.50;;;24.30;99.90;;;;;;6210045;22;20619;-89
2022/07/04 17:01:11;;;;;;;6.68;5.15;;;24.30;99.90;;;;;;6221726;22;20030;-89
2022/07/04 17:03:42;;;;;;;2.10;1.98;;;24.40;99.90;;;;;;6196421;22;20485;-89
2022/07/04 17:06:11;;;;;;;2.30;2.08;;;24.30;99.90;;;;;;6194953;22;20028;-89
2022/07/04 17:08:44;;;;;;;2.00;1.63;;;24.40;99.90;;;;;;6247644;22;20012;-88
2022/07/04 17:11:12;;;;;;;6.93;1.55;;;24.20;99.90;;;;;;6196562;22;20020;-89
2022/07/04 17:13:43;;;;;;;;;;;24.10;99.90;;;;;;6248632;22;20027;-89
2022/07/04 17:16:12;;;;;;;9.18;1.98;;;24.10;99.90;;;;;;6271906;22;19915;-89
2022/07/04 17:18:41;;;;;;;6.50;5.78;;;24.00;99.90;;;;;;6253280;22;20020;-88
2022/07/04 17:21:11;;;;;;;5.35;2.03;;;23.90;99.90;;;;;;6257929;22;20439;-88
2022/07/04 17:23:46;;;;;;;1.15;1.15;;;23.80;99.90;;;;;;6221562;22;20020;-88
2022/07/04 17:26:18;;;;;;;2.63;1.65;;;23.70;99.90;;;;;;6220432;22;20026;-89
2022/07/04 17:30:33;;;;;;;3.65;2.25;;;23.70;99.90;;;;;;6218809;22;20330;-89
2022/07/04 17:33:05;;;;;;;1.92;1.83;;;23.60;99.90;;;;;;6185089;22;20022;-89
2022/07/04 17:35:33;;;;;;;1.98;1.88;;;23.50;99.90;;;;;;6197576;22;20020;-90
2022/07/04 17:38:04;;;;;;;4.85;1.80;;;23.30;99.90;;;;;;6201400;22;20020;-89
2022/07/04 17:40:41;;;;;;;;;;;23.10;99.90;;;;;;6237513;22;20019;-89
2022/07/04 17:43:17;;;;;;;4.22;1.85;;;23.00;99.90;;;;;;6248267;22;19922;-91
2022/07/04 17:50:04;;;;;;;3.25;1.77;;;22.50;99.90;;;;;;6245307;23;20025;-91
2022/07/04 17:53:56;;;;;;;4.50;2.72;;;22.00;99.90;;;;;;6071917;23;20018;-84
2022/07/04 17:56:36;;;;;;;3.85;3.55;;;21.50;99.90;;;;;;6158008;23;20013;-86
2022/07/04 17:59:12;;;;;;;12.07;2.83;;;21.00;99.90;;;;;;6195357;23;20035;-85
2022/07/04 18:05:56;;;;;;;10.52;2.92;;;19.80;99.90;;;;;;6242800;23;20020;-83
2022/07/04 18:08:41;;;;;;;2.05;1.95;;;19.30;99.90;;;;;;6168961;23;20028;-84
2022/07/04 18:11:12;;;;;;;3.03;2.72;;;19.20;99.90;;;;;;6216285;23;20024;-83
2022/07/04 18:13:48;;;;;;;6.97;3.08;;;19.30;99.90;;;;;;6193322;22;20035;-83
2022/07/04 18:16:23;;;;;;;4.55;3.53;;;19.20;99.90;;;;;;6170010;23;20344;-84
2022/07/04 18:19:21;;;;;;;2.65;2.45;;;19.10;99.90;;;;;;6192293;23;20080;-84
2022/07/04 18:22:05;;;;;;;7.05;3.28;;;19.20;99.90;;;;;;6162957;22;20072;-86
2022/07/04 18:25:09;;;;;;;3.30;2.50;;;19.20;99.90;;;;;;6197785;23;20008;-85
2022/07/04 18:27:54;;;;;;;5.22;2.63;;;19.20;99.90;;;;;;6197865;23;20016;-85
2022/07/04 18:35:35;;;;;;;3.92;3.25;;;19.10;99.90;;;;;;6195807;23;20032;-87
2022/07/04 18:38:46;;;;;;;7.32;4.18;;;19.10;99.90;;;;;;6141357;23;20032;-84
2022/07/04 18:44:25;;;;;;;9.35;3.00;;;19.00;99.90;;;;;;6144000;23;20048;-85
2022/07/04 18:46:59;;;;;;;3.63;3.28;;;19.00;99.90;;;;;;6129666;23;20033;-85
2022/07/04 18:49:49;;;;;;;3.20;2.90;;;18.90;99.90;;;;;;6134653;23;20017;-86
2022/07/04 18:52:21;;;;;;;3.35;3.05;;;19.00;99.90;;;;;;6182428;23;20017;-85
2022/07/04 18:54:52;;;;;;;4.00;3.70;;;18.90;99.90;;;;;;6155508;23;20033;-83
2022/07/04 18:57:24;;;;;;;4.07;3.75;;;19.00;99.90;;;;;;6181506;23;20021;-85
2022/07/04 19:00:01;;;;;;;3.80;3.42;;;18.90;99.90;;;;;;6130575;23;20017;-85
2022/07/04 19:02:34;;;;;;;7.45;3.25;;;18.90;99.90;;;;;;6156049;23;20040;-83
2022/07/04 19:05:28;;;;;;;3.78;3.47;;;18.80;99.90;;;;;;6180434;23;20437;-86
2022/07/04 19:09:04;;;;;;;3.33;3.13;;;18.80;99.90;;;;;;6167822;23;20027;-87
2022/07/04 19:12:11;;;;;;;6.10;3.42;;;18.70;99.90;;;;;;6192234;23;20027;-86
2022/07/04 19:15:12;;;;;;;7.07;3.90;;;18.70;99.90;;;;;;6171739;23;20024;-86
2022/07/04 19:17:57;;;;;;;4.07;2.80;;;18.60;99.90;;;;;;6192814;23;20024;-81
2022/07/04 19:20:28;;;;;;;2.88;2.67;;;18.50;99.90;;;;;;6255027;23;20016;-81
2022/07/04 19:23:07;;;;;;;3.40;2.83;;;18.50;99.90;;;;;;6222178;23;20020;-81
2022/07/04 19:25:36;;;;;;;6.60;3.53;;;18.60;99.90;;;;;;6227559;23;20027;-81
2022/07/04 19:28:21;;;;;;;3.90;3.60;;;18.60;99.90;;;;;;6197633;23;20035;-81
2022/07/04 19:30:50;;;;;;;3.10;2.88;;;18.70;99.90;;;;;;6222292;23;20035;-79
2022/07/04 19:33:20;;;;;;;3.95;3.65;;;18.60;99.90;;;;;;6254798;23;20012;-81
2022/07/04 19:35:50;;;;;;;3.17;2.88;;;18.60;99.90;;;;;;6216893;22;20343;-81
2022/07/04 19:38:19;;;;;;;4.70;3.42;;;18.50;99.90;;;;;;6248264;23;20032;-80
2022/07/04 19:40:47;;;;;;;7.57;4.70;;;18.40;99.90;;;;;;6225974;23;20027;-82
2022/07/04 19:43:15;;;;;;;2.88;2.60;;;18.30;99.90;;;;;;6251729;22;20036;-84
2022/07/04 19:45:43;;;;;;;2.35;2.15;;;18.20;99.90;;;;;;6259482;22;20023;-79
2022/07/04 19:48:33;;;;;;;2.10;2.00;;;18.10;99.90;;;;;;6244593;22;20024;-88
2022/07/04 19:51:08;;;;;;;3.95;1.88;;;17.90;99.90;;;;;;6203517;23;20031;-82
2022/07/04 19:53:38;;;;;;;2.40;2.30;;;17.80;99.90;;;;;;6228365;23;20015;-81
2022/07/04 19:56:06;;;;;;;2.25;1.52;;;17.60;99.90;;;;;;6215762;23;20371;-81
2022/07/04 19:58:35;;;;;;;1.80;1.70;;;17.40;99.90;;;;;;6247273;22;20020;-81
2022/07/04 20:01:04;;;;;;;3.38;1.83;;;17.30;99.90;;;;;;6216429;23;20020;-81
2022/07/04 20:03:42;;;;;;;1.73;1.63;;;17.10;99.90;;;;;;6243379;23;20024;-82
2022/07/04 20:06:16;;;;;;;2.40;1.40;;;17.00;99.90;;;;;;6249588;22;20024;-82
2022/07/04 20:08:57;;;;;;;3.22;1.85;;;16.90;99.90;;;;;;6192559;23;20343;-88
2022/07/04 20:12:27;;;;;;;12.73;3.00;;;16.80;99.90;;;;;;6199365;22;20012;-89
2022/07/04 20:14:58;;;;;;;5.40;2.10;;;16.40;99.90;;;;;;6222707;22;20051;-86
2022/07/04 20:17:44;;;;;;;28.33;2.90;;;16.10;99.90;;;;;;6200453;23;20028;-84
2022/07/04 20:23:49;;;;;;;3.70;2.28;;;15.80;99.90;;;;;;6229075;22;20028;-85
2022/07/04 20:27:08;;;;;;;3.10;1.95;;;15.90;99.90;;;;;;6243321;23;20016;-85
2022/07/04 20:52:30;;;;;;;3.60;1.33;;;15.60;99.90;;;;;;6205965;23;20267;-86
2022/07/04 20:56:08;;;;;;;2.17;1.35;;;15.60;99.90;;;;;;6191992;23;20326;-85
2022/07/04 22:15:39;;;;;;;1.60;1.50;;;16.00;99.90;;;;;;6189727;23;20340;-80
2022/07/04 22:18:07;;;;;;;2.35;1.70;;;16.00;99.90;;;;;;6183825;23;20028;-83
2022/07/04 22:20:35;;;;;;;3.42;1.65;;;16.10;99.90;;;;;;6187543;23;20336;-83
2022/07/04 22:23:06;;;;;;;1.33;1.23;;;16.10;99.90;;;;;;6187284;23;20033;-83
2022/07/04 22:25:41;;;;;;;1.40;1.30;;;16.10;99.90;;;;;;6162047;22;20016;-84
